KGTR/GTR METAR and TAF weather

Enter ICAO airport designator
Station Type Date Time Source
KGTR METAR 2021/09/28 16:56 UTC NOAA

KGTR 281656Z 00000KT 10SM CLR 28/19 A3004 RMK AO2 SLP177 T02830194


Station Type Date Time Source
KGTR Decoded METAR 2021/09/28 16:56 UTC NOAA

Columbus/West Point/Starkville, Golden Triangle Regional Airport, MS, United States (KGTR) 33-27N 088-35W
Sep 28, 2021 - 12:56 PM EDT / 2021.09.28 1656 UTC
Wind: Calm:0
Visibility: 10 mile(s):0
Sky conditions: clear
Temperature: 82.9 F (28.3 C)
Dew Point: 66.9 F (19.4 C)
Relative Humidity: 58%
Pressure (altimeter): 30.04 in. Hg (1017 hPa)
ob: KGTR 281656Z 00000KT 10SM CLR 28/19 A3004 RMK AO2 SLP177 T02830194
cycle: 17

Station Type Date Time Source
KGTR TAF 2021/09/28 12:22 UTC NOAA

TAF KGTR 281120Z 2812/2912 17004KT P6SM BKN060 BKN080
FM291000 15004KT P6SM BKN008 BKN015

Example: see airport list